Time;durP1;ratioP1;P1;durP2;ratioP2;P2;SDS_P1;SDS_P2;PMS_P1;PMS_P2;Temp;Humidity;BMP_temperature;BMP_pressure;BME280_temperature;BME280_humidity;BME280_pressure;Samples;Min_cycle;Max_cycle;Signal;HPM_P1;HPM_P2
2022/05/23 00:01:31;;;;;;;6.03;3.67;;;;;;;17.55;60.25;94337.81;5063355;28;20340;-82
2022/05/23 00:04:02;;;;;;;9.73;4.30;;;;;;;17.56;61.02;94349.91;5067019;28;20205;-80
2022/05/23 00:06:35;;;;;;;5.70;4.60;;;;;;;17.55;62.06;94342.25;5066318;28;20227;-83
2022/05/23 00:09:08;;;;;;;5.67;4.70;;;;;;;17.55;62.73;94345.69;5064627;28;20200;-83
2022/05/23 00:11:46;;;;;;;8.30;4.80;;;;;;;17.52;63.16;94348.81;5061677;28;20237;-82
2022/05/23 00:14:19;;;;;;;5.40;4.30;;;;;;;17.43;63.47;94336.53;5061250;28;21177;-82
2022/05/23 00:16:53;;;;;;;6.70;4.03;;;;;;;17.40;63.55;94331.78;5062477;28;20217;-81
2022/05/23 00:19:31;;;;;;;6.27;4.73;;;;;;;17.30;64.03;94337.06;5063706;28;20200;-84
2022/05/23 00:22:05;;;;;;;5.40;4.63;;;;;;;17.19;64.31;94325.81;5059280;28;20209;-81
2022/05/23 00:24:44;;;;;;;7.00;4.50;;;;;;;17.08;65.02;94310.34;5063496;28;20978;-82
2022/05/23 00:27:20;;;;;;;8.13;4.13;;;;;;;17.05;65.99;94313.50;5062539;28;20224;-82
2022/05/23 00:29:51;;;;;;;9.00;4.30;;;;;;;17.05;66.22;94327.41;5063900;28;20298;-81
2022/05/23 00:35:20;;;;;;;6.10;4.83;;;;;;;16.99;65.22;94318.75;5063224;28;20204;-81
2022/05/23 00:37:53;;;;;;;6.67;4.70;;;;;;;16.82;65.89;94320.88;5062720;28;20296;-81
2022/05/23 00:40:47;;;;;;;5.90;4.90;;;;;;;16.82;66.15;94326.13;5062413;28;20201;-83
2022/05/23 00:43:22;;;;;;;7.73;4.60;;;;;;;16.88;66.07;94332.16;5064085;28;20197;-94
2022/05/23 00:45:54;;;;;;;6.30;4.83;;;;;;;16.90;65.22;94330.06;5069465;28;20207;-95
2022/05/23 00:48:29;;;;;;;6.27;4.30;;;;;;;16.92;64.38;94331.38;5069505;28;20755;-95
2022/05/23 00:51:01;;;;;;;6.70;4.30;;;;;;;16.92;65.06;94336.63;5075465;28;20203;-95
2022/05/23 00:53:34;;;;;;;8.47;4.37;;;;;;;16.92;65.56;94338.44;5066973;28;20271;-92
2022/05/23 00:56:09;;;;;;;5.00;4.07;;;;;;;16.86;65.53;94331.63;5065904;28;20236;-92
2022/05/23 00:58:43;;;;;;;9.23;5.30;;;;;;;16.91;66.86;94332.41;5058438;28;20228;-91
2022/05/23 01:01:27;;;;;;;9.13;5.27;;;;;;;16.89;67.88;94333.72;5063945;28;20283;-91
2022/05/23 01:03:58;;;;;;;7.30;5.00;;;;;;;16.80;68.38;94327.44;5064878;28;20202;-89
2022/05/23 01:06:28;;;;;;;9.60;5.33;;;;;;;16.82;69.10;94334.00;5065659;28;20279;-89
2022/05/23 01:09:02;;;;;;;7.53;5.37;;;;;;;16.75;69.06;94330.06;5066636;28;20644;-88
2022/05/23 01:11:38;;;;;;;9.07;5.60;;;;;;;16.78;69.01;94346.09;5066903;28;20225;-94
2022/05/23 01:14:11;;;;;;;7.20;5.03;;;;;;;16.72;68.55;94344.50;5071246;28;20346;-94
2022/05/23 01:16:43;;;;;;;6.03;5.03;;;;;;;16.68;68.99;94335.56;5067360;28;20275;-83
2022/05/23 01:19:14;;;;;;;6.33;4.80;;;;;;;16.62;69.36;94334.03;5059996;28;20399;-83
2022/05/23 01:21:56;;;;;;;6.87;5.23;;;;;;;16.59;69.25;94326.69;5061267;28;20208;-82
2022/05/23 01:24:36;;;;;;;6.60;5.03;;;;;;;16.59;69.41;94325.88;5062559;28;20274;-82
2022/05/23 01:27:11;;;;;;;6.67;5.33;;;;;;;16.55;69.38;94315.13;5063296;28;20255;-82
2022/05/23 01:29:47;;;;;;;6.30;5.10;;;;;;;16.48;69.75;94312.72;5062136;28;20202;-83
2022/05/23 01:32:18;;;;;;;11.90;5.77;;;;;;;16.42;70.67;94315.63;5060527;28;20210;-83
2022/05/23 01:34:51;;;;;;;7.77;5.17;;;;;;;16.36;70.85;94314.06;5060891;28;20208;-81
2022/05/23 01:37:21;;;;;;;7.63;5.33;;;;;;;16.20;71.82;94307.19;5063671;28;21024;-81
2022/05/23 01:39:53;;;;;;;10.33;5.50;;;;;;;16.19;71.87;94306.41;5060772;28;20292;-81
2022/05/23 01:42:29;;;;;;;6.97;5.60;;;;;;;16.17;72.06;94312.97;5061944;28;20244;-86
2022/05/23 01:44:59;;;;;;;6.70;5.03;;;;;;;16.05;72.73;94312.41;5060233;28;20262;-86
2022/05/23 01:47:29;;;;;;;8.87;5.50;;;;;;;15.93;72.99;94291.69;5059753;28;20607;-88
2022/05/23 01:50:00;;;;;;;7.03;5.60;;;;;;;16.05;73.39;94315.81;5063476;28;20202;-84
2022/05/23 01:52:33;;;;;;;6.47;5.27;;;;;;;16.07;73.77;94318.22;5060231;28;20204;-83
2022/05/23 01:55:04;;;;;;;5.77;5.23;;;;;;;16.06;73.84;94316.63;5059926;28;20233;-84
2022/05/23 01:57:38;;;;;;;6.27;5.30;;;;;;;16.00;73.19;94315.81;5059076;28;20214;-83
2022/05/23 02:02:58;;;;;;;6.97;5.63;;;;;;;16.05;74.40;94315.03;5061755;28;20327;-83
2022/05/23 02:05:30;;;;;;;8.20;5.70;;;;;;;16.01;75.47;94320.03;5057958;28;20220;-88
2022/05/23 02:08:01;;;;;;;6.00;5.30;;;;;;;15.98;75.50;94317.13;5062577;28;20225;-89
2022/05/23 02:10:32;;;;;;;11.73;6.20;;;;;;;15.93;75.89;94320.50;5060234;28;20202;-88
2022/05/23 02:13:10;;;;;;;6.57;5.77;;;;;;;15.86;76.42;94327.84;5061223;28;20231;-88
2022/05/23 02:15:45;;;;;;;8.40;5.77;;;;;;;15.73;76.62;94316.00;5059897;28;20212;-89
2022/05/23 02:18:18;;;;;;;6.90;5.83;;;;;;;15.76;77.00;94314.72;5062888;28;20282;-88
2022/05/23 02:20:50;;;;;;;8.93;6.13;;;;;;;15.69;76.85;94309.72;5062672;28;20263;-87
2022/05/23 02:23:25;;;;;;;8.50;5.93;;;;;;;15.69;77.46;94322.03;5058933;28;20208;-85
2022/05/23 02:25:58;;;;;;;10.17;5.90;;;;;;;15.66;77.83;94328.59;5055682;28;21211;-86
2022/05/23 02:28:33;;;;;;;6.23;5.60;;;;;;;15.59;78.43;94320.16;5055913;28;20233;-87
2022/05/23 02:31:05;;;;;;;8.97;6.30;;;;;;;15.55;79.34;94316.50;5056334;28;20283;-87
2022/05/23 02:33:35;;;;;;;8.80;6.47;;;;;;;15.53;79.83;94313.31;5054598;28;20200;-87
2022/05/23 02:36:07;;;;;;;8.37;6.40;;;;;;;15.56;80.10;94319.88;5058590;28;20208;-87
2022/05/23 02:38:39;;;;;;;8.33;6.27;;;;;;;15.67;80.46;94322.28;5056445;28;20205;-86
2022/05/23 02:41:10;;;;;;;12.53;6.40;;;;;;;15.74;80.00;94317.59;5057808;28;20350;-88
2022/05/23 02:43:43;;;;;;;9.57;6.00;;;;;;;15.86;79.43;94312.91;5053100;28;20201;-87
2022/05/23 02:46:14;;;;;;;10.17;6.50;;;;;;;15.92;79.17;94323.41;5056913;28;20861;-86
2022/05/23 02:48:46;;;;;;;10.40;6.10;;;;;;;15.99;79.40;94324.72;5060590;28;20222;-86
2022/05/23 02:51:16;;;;;;;8.37;6.30;;;;;;;16.10;78.57;94317.69;5057108;28;20197;-85
2022/05/23 02:53:48;;;;;;;8.93;6.20;;;;;;;16.25;77.36;94315.06;5057422;28;20255;-84
2022/05/23 02:56:17;;;;;;;10.93;6.63;;;;;;;16.28;77.45;94315.34;5058197;28;20205;-80
2022/05/23 02:58:48;;;;;;;7.20;6.03;;;;;;;16.37;76.57;94326.09;5055093;28;20573;-80
2022/05/23 03:01:25;;;;;;;8.97;5.87;;;;;;;16.34;76.16;94314.28;5054016;28;21045;-81
2022/05/23 03:03:54;;;;;;;8.93;6.20;;;;;;;16.51;75.74;94313.25;5060614;28;20201;-81
2022/05/23 03:06:24;;;;;;;9.47;5.43;;;;;;;16.50;75.80;94311.69;5060132;28;20220;-81
2022/05/23 03:08:58;;;;;;;7.90;5.93;;;;;;;16.53;75.60;94303.28;5059475;28;20298;-81
2022/05/23 03:11:35;;;;;;;10.27;5.97;;;;;;;16.60;74.93;94307.25;5060157;28;21011;-82
2022/05/23 03:14:08;;;;;;;9.13;5.90;;;;;;;16.67;74.20;94309.59;5061666;28;20221;-89
2022/05/23 03:16:41;;;;;;;6.57;5.30;;;;;;;16.69;74.05;94308.28;5056209;28;20223;-88
2022/05/23 03:19:13;;;;;;;12.60;5.80;;;;;;;16.75;73.53;94301.19;5062338;28;20217;-89
2022/05/23 03:27:27;;;;;;;9.00;5.73;;;;;;;16.88;73.82;94284.91;5059836;28;20212;-89
2022/05/23 03:30:02;;;;;;;7.23;5.70;;;;;;;16.89;74.34;94303.00;5059426;28;20202;-89
2022/05/23 03:32:38;;;;;;;8.07;6.37;;;;;;;16.97;75.91;94309.56;5056298;28;20258;-89
2022/05/23 03:35:09;;;;;;;8.33;6.07;;;;;;;17.09;77.11;94304.81;5059938;28;20197;-88
2022/05/23 03:37:39;;;;;;;10.20;6.23;;;;;;;16.96;76.61;94305.38;5057360;28;20213;-88
2022/05/23 03:40:13;;;;;;;9.03;5.70;;;;;;;17.02;75.83;94301.69;5058737;28;20237;-87
2022/05/23 03:42:42;;;;;;;10.40;6.03;;;;;;;17.01;75.80;94298.28;5065737;28;20240;-91
2022/05/23 03:45:13;;;;;;;9.80;5.87;;;;;;;17.07;75.68;94296.41;5060860;28;20293;-92
2022/05/23 03:47:44;;;;;;;9.53;5.77;;;;;;;17.14;74.88;94299.56;5062252;28;20233;-77
2022/05/23 03:50:15;;;;;;;11.37;5.57;;;;;;;17.05;77.18;94303.78;5057748;28;20194;-77
2022/05/23 03:52:46;;;;;;;12.53;5.80;;;;;;;17.08;77.97;94307.72;5055795;28;20684;-76
2022/05/23 03:55:19;;;;;;;14.83;6.70;;;;;;;17.11;78.09;94315.84;5057494;28;20219;-76
2022/05/23 03:57:51;;;;;;;10.00;6.53;;;;;;;17.15;78.12;94308.19;5060734;28;20213;-76
2022/05/23 04:00:24;;;;;;;14.30;6.43;;;;;;;17.00;78.08;94307.19;5059939;28;20205;-76
2022/05/23 04:02:57;;;;;;;9.97;6.00;;;;;;;17.00;77.54;94309.81;5059642;28;20205;-77
2022/05/23 04:05:26;;;;;;;12.47;6.90;;;;;;;17.05;77.43;94310.88;5060020;28;20210;-76
2022/05/23 04:07:56;;;;;;;9.60;6.50;;;;;;;17.02;76.88;94304.31;5059767;28;21930;-76
2022/05/23 04:10:25;;;;;;;10.87;6.93;;;;;;;16.71;78.82;94297.53;5061542;28;20221;-76
2022/05/23 04:12:53;;;;;;;10.27;6.67;;;;;;;16.39;80.96;94295.94;5057286;28;20975;-77
2022/05/23 04:15:24;;;;;;;10.97;6.40;;;;;;;16.24;82.00;94308.25;5064237;28;20284;-76
2022/05/23 04:17:54;;;;;;;9.83;6.60;;;;;;;16.13;82.87;94304.06;5066052;28;20204;-75
2022/05/23 04:20:22;;;;;;;12.33;6.23;;;;;;;16.15;82.73;94304.56;5064426;28;20652;-75
2022/05/23 04:22:55;;;;;;;12.03;6.20;;;;;;;16.24;82.90;94306.44;5064206;28;20241;-73
2022/05/23 04:25:25;;;;;;;11.10;6.40;;;;;;;16.44;82.30;94306.44;5065888;28;20200;-74
2022/05/23 04:27:57;;;;;;;9.77;6.50;;;;;;;16.59;81.25;94297.81;5065611;28;20225;-74
2022/05/23 04:30:30;;;;;;;10.07;5.97;;;;;;;16.68;80.12;94305.94;5065453;28;20216;-74
2022/05/23 04:35:50;;;;;;;8.20;5.93;;;;;;;16.78;79.63;94314.59;5039890;28;20557;-73
2022/05/23 04:38:20;;;;;;;9.40;6.20;;;;;;;16.86;79.65;94308.78;5064535;28;20197;-74
2022/05/23 04:40:50;;;;;;;12.57;6.27;;;;;;;16.93;79.04;94309.31;5060883;28;20233;-73
2022/05/23 04:43:18;;;;;;;10.67;5.97;;;;;;;16.89;79.12;94299.59;5062351;28;20213;-73
2022/05/23 04:45:50;;;;;;;11.37;6.43;;;;;;;16.75;79.65;94290.69;5065236;28;20595;-76
2022/05/23 04:51:09;;;;;;;14.20;5.87;;;;;;;16.97;78.43;94286.72;5064593;28;20254;-77
2022/05/23 04:53:41;;;;;;;12.73;5.97;;;;;;;17.12;77.35;94292.97;5065328;28;20218;-76
2022/05/23 04:56:13;;;;;;;10.27;5.47;;;;;;;17.24;75.53;94289.00;5065380;28;20250;-76
2022/05/23 04:58:45;;;;;;;10.87;6.97;;;;;;;17.40;74.34;94295.00;5067085;28;20201;-75
2022/05/23 05:01:17;;;;;;;13.60;4.90;;;;;;;17.51;71.44;94301.78;5067062;28;20206;-75
2022/05/23 05:03:48;;;;;;;7.00;4.23;;;;;;;17.68;68.61;94304.13;5063180;28;20224;-75
2022/05/23 05:06:20;;;;;;;7.33;4.00;;;;;;;17.79;67.25;94306.44;5063134;28;20205;-83
2022/05/23 05:08:51;;;;;;;8.17;3.90;;;;;;;17.84;65.40;94289.81;5064455;28;20213;-74
2022/05/23 05:11:24;;;;;;;7.17;3.60;;;;;;;17.93;64.63;94291.63;5064459;28;20201;-74
2022/05/23 05:13:57;;;;;;;8.33;3.90;;;;;;;17.98;64.25;94296.06;5064227;28;20212;-76
2022/05/23 05:16:31;;;;;;;7.90;3.63;;;;;;;17.99;63.78;94280.00;5062735;28;20208;-73
2022/05/23 05:19:03;;;;;;;5.30;3.80;;;;;;;18.00;63.90;94284.22;5063416;28;20281;-73
2022/05/23 05:21:34;;;;;;;7.50;4.07;;;;;;;18.01;63.62;94282.34;5063665;28;20213;-74
2022/05/23 05:24:03;;;;;;;6.53;3.57;;;;;;;18.02;62.63;94284.72;5066900;28;20741;-74
2022/05/23 05:26:35;;;;;;;5.97;3.13;;;;;;;18.11;61.73;94279.69;5065624;28;20224;-74
2022/05/23 05:29:08;;;;;;;4.67;3.27;;;;;;;18.14;60.61;94277.28;5063621;28;20223;-74
2022/05/23 05:31:46;;;;;;;6.33;3.40;;;;;;;18.24;60.75;94267.75;5064462;28;20213;-74
2022/05/23 05:34:22;;;;;;;5.47;3.30;;;;;;;18.27;58.96;94257.44;5063684;28;20212;-76
2022/05/23 05:36:59;;;;;;;9.23;3.07;;;;;;;18.30;58.75;94280.59;5063417;28;20212;-74
2022/05/23 05:39:31;;;;;;;5.93;3.10;;;;;;;18.39;57.98;94291.31;5062935;28;20208;-74
2022/05/23 05:42:05;;;;;;;6.40;3.13;;;;;;;18.39;57.89;94286.03;5064127;28;20264;-73
2022/05/23 05:44:38;;;;;;;8.47;3.40;;;;;;;18.40;57.63;94285.78;5064632;28;20283;-73
2022/05/23 05:47:15;;;;;;;7.97;3.13;;;;;;;18.49;56.78;94299.97;5064657;28;21039;-76
2022/05/23 05:49:48;;;;;;;5.27;2.90;;;;;;;18.51;57.22;94299.66;5063834;28;20639;-76
2022/05/23 05:52:20;;;;;;;5.57;2.90;;;;;;;18.50;57.64;94296.25;5066059;28;20205;-74
2022/05/23 05:54:52;;;;;;;12.10;3.70;;;;;;;18.53;57.29;94300.16;5063590;28;20288;-75
2022/05/23 05:57:24;;;;;;;4.00;3.30;;;;;;;18.67;56.40;94303.78;5063603;28;20209;-74
2022/05/23 05:59:55;;;;;;;7.00;2.77;;;;;;;18.72;55.93;94308.97;5063444;28;20805;-75
2022/05/23 06:02:27;;;;;;;5.73;3.10;;;;;;;18.63;56.99;94298.25;5063119;28;20239;-74
2022/05/23 06:04:59;;;;;;;4.57;3.50;;;;;;;18.57;57.72;94304.63;5060528;28;20201;-74
2022/05/23 06:13:21;;;;;;;8.80;3.50;;;;;;;18.76;58.19;94291.53;5000362;28;20241;-73
2022/05/23 06:15:54;;;;;;;7.00;3.80;;;;;;;18.77;57.83;94281.81;4997616;28;20287;-74
2022/05/23 06:18:24;;;;;;;9.20;3.80;;;;;;;18.76;58.46;94283.66;5030399;28;20208;-75
2022/05/23 06:20:54;;;;;;;10.03;4.27;;;;;;;18.70;58.58;94287.38;5063044;28;20324;-77
2022/05/23 06:23:25;;;;;;;5.33;3.90;;;;;;;18.78;58.25;94289.44;5067375;28;20259;-75
2022/05/23 06:25:56;;;;;;;11.77;4.43;;;;;;;18.87;58.42;94279.09;5064370;28;20324;-76
2022/05/23 06:28:26;;;;;;;9.70;5.17;;;;;;;18.89;58.09;94276.97;5063185;28;20691;-75
2022/05/23 06:30:57;;;;;;;6.50;3.97;;;;;;;19.01;56.92;94274.75;5061606;28;20201;-75
2022/05/23 06:33:26;;;;;;;7.47;4.07;;;;;;;19.16;56.35;94267.44;5062670;28;20197;-75
2022/05/23 06:35:54;;;;;;;6.82;3.25;;;;;;;19.25;55.72;94255.22;5061050;28;20213;-76
2022/05/23 06:38:24;;;;;;;11.25;3.83;;;;;;;19.41;54.79;94263.78;5061973;28;20201;-76
2022/05/23 06:40:54;;;;;;;5.68;3.53;;;;;;;19.53;54.78;94263.38;5061604;28;20271;-75
2022/05/23 06:43:25;;;;;;;9.02;3.45;;;;;;;19.60;53.22;94256.69;5064971;28;20290;-77
2022/05/23 06:45:57;;;;;;;6.20;2.97;;;;;;;19.53;52.34;94258.88;5063597;28;20678;-80
2022/05/23 06:48:28;;;;;;;5.65;3.67;;;;;;;19.50;51.66;94259.44;5063533;28;20201;-81
2022/05/23 06:50:57;;;;;;;6.97;3.45;;;;;;;19.54;51.98;94255.16;5063811;28;20293;-83
2022/05/23 06:53:29;;;;;;;10.30;3.95;;;;;;;19.57;52.96;94259.09;5064868;28;20575;-83
2022/05/23 06:56:02;;;;;;;7.47;3.15;;;;;;;19.63;52.61;94256.09;5063991;28;20201;-81
2022/05/23 06:58:35;;;;;;;4.18;3.38;;;;;;;19.79;51.60;94262.78;5065638;28;20193;-81
2022/05/23 07:01:04;;;;;;;5.20;3.30;;;;;;;19.84;52.95;94269.81;5064083;28;20193;-80
2022/05/23 07:03:34;;;;;;;7.47;3.60;;;;;;;20.01;50.89;94264.03;5066427;28;20295;-83
2022/05/23 07:14:21;;;;;;;8.57;3.60;;;;;;;20.26;50.15;94258.41;5067378;28;20196;-84
2022/05/23 07:16:49;;;;;;;9.25;3.40;;;;;;;20.28;50.60;94266.84;5064095;28;20205;-84
2022/05/23 07:19:19;;;;;;;5.22;3.40;;;;;;;20.34;50.09;94260.41;5064163;28;20194;-83
2022/05/23 07:21:46;;;;;;;3.65;2.83;;;;;;;20.40;49.96;94267.19;5063608;28;20201;-83
2022/05/23 07:24:16;;;;;;;6.25;3.20;;;;;;;20.41;49.76;94262.66;5065072;28;20193;-81
2022/05/23 07:26:48;;;;;;;4.82;3.42;;;;;;;20.31;49.54;94248.59;5062117;28;20197;-82
2022/05/23 07:29:19;;;;;;;6.70;3.30;;;;;;;20.46;50.30;94254.69;5063271;28;20616;-82
2022/05/23 07:31:48;;;;;;;7.80;3.38;;;;;;;20.48;49.59;94255.19;5066175;28;20189;-84
2022/05/23 07:34:20;;;;;;;5.55;3.10;;;;;;;20.43;49.73;94237.56;5070617;28;20763;-83
2022/05/23 07:36:49;;;;;;;8.95;3.03;;;;;;;20.59;47.71;94256.56;5065243;28;20193;-83
2022/05/23 07:39:17;;;;;;;5.50;2.50;;;;;;;20.61;45.06;94263.13;5067905;28;20212;-83
2022/05/23 07:41:49;;;;;;;6.65;2.70;;;;;;;20.58;44.10;94252.34;5068776;28;20271;-83
2022/05/23 07:44:17;;;;;;;3.88;2.45;;;;;;;20.62;44.64;94250.72;5066061;28;20598;-80
2022/05/23 07:46:48;;;;;;;5.32;2.72;;;;;;;20.66;44.10;94254.34;5065943;28;20654;-83
2022/05/23 07:49:18;;;;;;;7.18;2.67;;;;;;;20.52;43.88;94238.44;5064287;28;20225;-81
2022/05/23 07:51:47;;;;;;;4.88;2.50;;;;;;;20.69;43.50;94264.34;5069527;28;20198;-83
2022/05/23 08:02:37;;;;;;;3.00;2.42;;;;;;;20.78;44.84;94273.94;5069829;28;20189;-81
2022/05/23 08:05:19;;;;;;;7.15;2.90;;;;;;;20.82;44.59;94245.88;5068124;28;20209;-82
2022/05/23 08:07:49;;;;;;;8.07;2.83;;;;;;;21.05;44.67;94270.56;5066041;28;20208;-84
2022/05/23 08:10:21;;;;;;;7.90;2.75;;;;;;;21.19;44.44;94267.94;5065931;28;20283;-80
2022/05/23 08:12:57;;;;;;;6.82;2.55;;;;;;;21.23;44.34;94253.88;5066853;28;20201;-82
2022/05/23 08:15:28;;;;;;;5.70;2.92;;;;;;;21.30;43.73;94269.31;5068717;28;20432;-82
2022/05/23 08:17:57;;;;;;;8.10;2.70;;;;;;;21.35;43.65;94272.69;5066240;28;20627;-82
2022/05/23 08:20:29;;;;;;;5.35;2.70;;;;;;;21.27;43.57;94256.72;5068545;28;20205;-81
2022/05/23 08:23:00;;;;;;;6.88;2.72;;;;;;;21.20;42.95;94259.75;5067395;28;20218;-82
2022/05/23 08:25:29;;;;;;;4.28;2.53;;;;;;;21.20;43.83;94259.75;5068823;28;20242;-80
2022/05/23 08:27:59;;;;;;;4.05;2.90;;;;;;;21.33;43.44;94264.22;5068127;28;20213;-80
2022/05/23 08:30:27;;;;;;;10.23;5.50;;;;;;;21.40;42.86;94263.84;5067322;28;21344;-80
2022/05/23 08:32:54;;;;;;;17.73;5.47;;;;;;;21.43;43.17;94258.75;5063902;28;20202;-79
2022/05/23 08:35:24;;;;;;;13.30;5.22;;;;;;;21.61;43.38;94248.38;5064130;28;20629;-80
2022/05/23 08:37:54;;;;;;;6.07;3.33;;;;;;;21.88;42.47;94248.31;5067038;28;20281;-78
2022/05/23 08:40:25;;;;;;;7.38;2.55;;;;;;;22.05;40.51;94277.59;5068157;28;20202;-81
2022/05/23 08:42:56;;;;;;;8.75;2.58;;;;;;;22.04;39.91;94262.81;5047872;28;20223;-81
2022/05/23 08:45:26;;;;;;;5.07;2.30;;;;;;;22.01;39.99;94250.16;5047699;28;20222;-81
2022/05/23 08:48:05;;;;;;;4.70;2.20;;;;;;;22.14;38.92;94246.69;5050761;28;20678;-82
2022/05/23 08:50:47;;;;;;;5.22;2.20;;;;;;;22.03;39.66;94254.06;5046760;28;20249;-80
2022/05/23 08:53:21;;;;;;;4.20;2.45;;;;;;;21.92;39.98;94262.53;5047612;28;20259;-82
2022/05/23 08:55:53;;;;;;;4.55;2.20;;;;;;;21.91;39.60;94258.31;5043812;28;20202;-83
2022/05/23 08:58:27;;;;;;;5.20;2.35;;;;;;;21.92;39.92;94249.31;5048539;28;20699;-81
2022/05/23 09:00:58;;;;;;;5.13;2.47;;;;;;;21.93;39.61;94240.28;5053699;28;20209;-81
2022/05/23 09:03:30;;;;;;;7.28;2.60;;;;;;;21.88;40.22;94217.34;5054243;28;20225;-81
2022/05/23 09:06:02;;;;;;;3.08;2.30;;;;;;;22.14;39.97;94236.09;5054263;28;20201;-81
2022/05/23 09:08:35;;;;;;;5.70;2.20;;;;;;;22.15;39.11;94240.31;5053477;28;20291;-79
2022/05/23 09:11:10;;;;;;;4.50;2.30;;;;;;;22.08;39.40;94239.94;5056002;28;20194;-81
2022/05/23 09:13:44;;;;;;;5.22;2.38;;;;;;;22.24;41.89;94235.09;5058797;28;20269;-80
2022/05/23 09:16:15;;;;;;;3.78;2.30;;;;;;;22.22;39.06;94232.72;5064248;28;20209;-81
2022/05/23 09:18:55;;;;;;;4.40;2.40;;;;;;;22.30;39.90;94231.22;5047857;28;20206;-84
2022/05/23 09:22:12;;;;;;;6.22;2.55;;;;;;;22.36;38.91;94230.03;5050249;28;20665;-85
2022/05/23 09:24:20;;;;;;;4.13;2.25;;;;;;;22.48;39.57;94223.09;5048378;28;20630;-85
2022/05/23 09:27:00;;;;;;;2.50;2.30;;;;;;;22.60;39.35;94228.63;5048284;28;20206;-86
2022/05/23 09:29:33;;;;;;;3.70;2.53;;;;;;;22.54;39.95;94205.19;5046245;28;20229;-84
2022/05/23 09:32:12;;;;;;;5.70;3.00;;;;;;;22.69;40.06;94219.97;5043351;28;20595;-85
2022/05/23 09:34:54;;;;;;;7.88;3.50;;;;;;;22.95;42.40;94216.34;5049613;28;20636;-85
2022/05/23 09:37:26;;;;;;;13.93;9.68;;;;;;;23.11;40.33;94224.69;5046529;28;20198;-84
2022/05/23 09:40:03;;;;;;;18.67;10.70;;;;;;;23.10;39.60;94220.47;5044938;28;20210;-84
2022/05/23 09:48:21;;;;;;;9.55;4.72;;;;;;;23.33;40.35;94223.81;5065207;28;20725;-85
2022/05/23 09:50:59;;;;;;;5.18;4.15;;;;;;;23.56;39.63;94220.00;5065123;28;20348;-85
2022/05/23 09:53:33;;;;;;;8.70;4.20;;;;;;;23.64;38.94;94216.59;5066638;28;20892;-85
2022/05/23 09:56:30;;;;;;;4.72;3.80;;;;;;;23.60;38.72;94218.31;5070134;28;20207;-84
2022/05/23 09:58:59;;;;;;;9.13;3.22;;;;;;;23.69;39.35;94197.88;5068639;28;20201;-84
2022/05/23 10:01:37;;;;;;;6.38;3.40;;;;;;;23.91;39.50;94204.91;5068010;28;20205;-85
2022/05/23 10:04:16;;;;;;;7.38;4.10;;;;;;;24.12;38.57;94214.66;5065931;28;20212;-84
2022/05/23 10:06:48;;;;;;;5.68;2.92;;;;;;;24.05;37.72;94205.53;5063074;28;20580;-84
2022/05/23 10:09:31;;;;;;;7.20;3.20;;;;;;;24.01;38.38;94216.00;5063811;28;20227;-84
2022/05/23 10:12:12;;;;;;;4.65;3.67;;;;;;;24.02;37.70;94200.84;5066483;28;20280;-85
2022/05/23 10:14:49;;;;;;;6.00;2.85;;;;;;;24.16;37.56;94201.50;5068039;28;20596;-83
2022/05/23 10:17:40;;;;;;;4.53;2.72;;;;;;;23.82;38.45;94204.91;5059116;28;20224;-83
2022/05/23 10:20:28;;;;;;;9.15;3.13;;;;;;;23.73;37.76;94194.28;5060760;28;20540;-84
2022/05/23 10:23:04;;;;;;;6.90;2.70;;;;;;;23.83;36.98;94201.19;5064214;28;20197;-83
2022/05/23 10:25:39;;;;;;;5.90;2.80;;;;;;;23.94;36.22;94197.13;5062011;28;20197;-81
2022/05/23 10:28:15;;;;;;;5.88;3.00;;;;;;;24.26;36.52;94188.69;5066023;28;20212;-82
2022/05/23 10:30:50;;;;;;;6.82;2.60;;;;;;;24.41;36.90;94186.66;5066929;28;20225;-81
2022/05/23 10:33:21;;;;;;;3.03;2.33;;;;;;;24.49;35.98;94183.19;5066114;28;20273;-82
2022/05/23 10:36:05;;;;;;;6.10;2.80;;;;;;;24.66;36.93;94188.44;5065095;28;20351;-81
2022/05/23 10:44:30;;;;;;;5.25;2.25;;;;;;;25.65;34.40;94181.81;5067514;28;20197;-83
2022/05/23 10:47:11;;;;;;;3.97;2.80;;;;;;;25.91;33.06;94175.19;5068291;28;20212;-83
2022/05/23 10:49:56;;;;;;;3.47;2.22;;;;;;;25.51;32.96;94174.06;5069377;28;20233;-83
2022/05/23 10:52:34;;;;;;;4.05;2.10;;;;;;;25.53;34.08;94179.84;5068064;28;20245;-80
2022/05/23 10:55:13;;;;;;;5.57;2.45;;;;;;;25.93;34.91;94161.53;5062977;28;20232;-80
2022/05/23 10:57:59;;;;;;;3.85;2.40;;;;;;;26.13;32.46;94160.75;5064873;28;21085;-78
2022/05/23 11:00:39;;;;;;;3.92;2.22;;;;;;;26.39;32.65;94163.19;5062143;28;20216;-79
2022/05/23 11:03:13;;;;;;;2.83;2.15;;;;;;;26.61;32.09;94170.78;5063777;28;20216;-77
2022/05/23 11:05:50;;;;;;;4.28;2.58;;;;;;;26.61;31.64;94167.38;5063461;28;20312;-77
2022/05/23 11:08:38;;;;;;;4.28;2.25;;;;;;;26.57;32.51;94172.59;5053872;28;20197;-80
2022/05/23 11:11:13;;;;;;;6.30;2.30;;;;;;;26.93;31.84;94172.66;5061701;28;20209;-84
2022/05/23 11:14:00;;;;;;;3.70;2.00;;;;;;;27.38;31.04;94163.78;5063515;28;20519;-82
2022/05/23 11:16:39;;;;;;;3.25;2.30;;;;;;;27.53;30.65;94171.16;5062721;28;20206;-82
2022/05/23 11:19:34;;;;;;;4.57;2.25;;;;;;;27.66;30.73;94167.34;5062914;28;20209;-80
2022/05/23 11:22:10;;;;;;;3.17;2.20;;;;;;;27.65;30.57;94160.44;5062001;28;20212;-80
2022/05/23 11:24:50;;;;;;;5.38;2.53;;;;;;;27.77;30.06;94164.97;5065271;28;20468;-81
2022/05/23 11:36:02;;;;;;;8.98;2.35;;;;;;;27.45;30.65;94172.03;5065123;28;20212;-80
2022/05/23 11:38:33;;;;;;;3.15;2.10;;;;;;;27.18;30.42;94160.13;5064510;28;20297;-80
2022/05/23 11:41:10;;;;;;;4.70;2.20;;;;;;;27.25;30.83;94170.22;5065770;28;20318;-80
2022/05/23 11:43:38;;;;;;;4.90;2.28;;;;;;;27.54;31.30;94159.34;5064104;28;20692;-82
2022/05/23 11:46:15;;;;;;;7.15;2.30;;;;;;;28.00;31.11;94182.06;5065558;28;20331;-83
2022/05/23 11:49:00;;;;;;;4.20;2.00;;;;;;;27.85;30.22;94156.81;5065897;28;20225;-81
2022/05/23 11:51:43;;;;;;;8.00;2.35;;;;;;;27.95;30.10;94151.00;5064021;28;20762;-82
2022/05/23 11:54:37;;;;;;;7.35;2.25;;;;;;;28.12;29.82;94168.69;5063243;28;20205;-81
2022/05/23 11:57:19;;;;;;;5.60;2.40;;;;;;;27.86;30.23;94165.63;5062026;28;20237;-82
2022/05/23 12:00:35;;;;;;;5.88;3.70;;;;;;;27.91;29.52;94165.38;5058582;28;20255;-82
2022/05/23 12:03:16;;;;;;;5.55;2.47;;;;;;;27.97;29.82;94170.16;5063802;28;20201;-82
2022/05/23 12:05:46;;;;;;;3.53;2.20;;;;;;;27.78;30.73;94161.97;5059525;28;20287;-83
2022/05/23 12:08:33;;;;;;;4.95;2.22;;;;;;;27.58;30.40;94163.69;5058617;28;20259;-83
2022/05/23 12:11:06;;;;;;;5.70;2.55;;;;;;;27.52;30.69;94153.56;5064266;28;20225;-83
2022/05/23 12:13:48;;;;;;;6.57;2.35;;;;;;;27.08;31.31;94162.44;5064246;28;20228;-83
2022/05/23 12:16:41;;;;;;;4.72;2.53;;;;;;;26.96;30.67;94156.00;5063424;28;20213;-83
2022/05/23 12:19:32;;;;;;;6.30;2.53;;;;;;;27.34;30.42;94162.88;5068290;28;20202;-82
2022/05/23 12:22:25;;;;;;;3.60;2.20;;;;;;;27.40;30.07;94145.53;5066238;28;20587;-82
2022/05/23 12:25:21;;;;;;;4.57;2.90;;;;;;;27.67;30.92;94157.44;5064349;28;20556;-83
2022/05/23 12:28:17;;;;;;;6.78;2.50;;;;;;;27.60;29.98;94158.00;5065496;28;20221;-82
2022/05/23 12:31:02;;;;;;;4.68;2.63;;;;;;;27.16;30.77;94148.22;5066230;28;20214;-79
2022/05/23 12:33:34;;;;;;;7.15;3.10;;;;;;;27.18;30.62;94151.34;5048113;28;20197;-79
2022/05/23 12:36:09;;;;;;;9.40;3.88;;;;;;;27.47;31.14;94149.25;5064947;28;20240;-80
2022/05/23 12:39:04;;;;;;;6.40;2.80;;;;;;;27.78;29.68;94150.50;5067480;28;21047;-80
2022/05/23 12:41:50;;;;;;;6.00;3.83;;;;;;;27.89;29.18;94157.72;5063403;28;20287;-80
2022/05/23 12:44:51;;;;;;;6.03;2.80;;;;;;;27.85;29.95;94156.06;5066080;28;20671;-79
2022/05/23 12:47:39;;;;;;;5.72;2.28;;;;;;;27.53;30.40;94165.81;5063939;28;20213;-78
2022/05/23 12:50:22;;;;;;;4.22;2.45;;;;;;;27.38;30.25;94148.56;5052922;28;20696;-80
2022/05/23 12:53:16;;;;;;;5.32;2.38;;;;;;;27.32;30.57;94146.44;5063020;28;20594;-77
2022/05/23 12:56:02;;;;;;;5.28;2.85;;;;;;;27.43;31.68;94153.69;5059822;28;20236;-78
2022/05/23 12:59:14;;;;;;;11.00;4.40;;;;;;;27.44;30.89;94152.59;5065087;28;20208;-78
2022/05/23 13:01:49;;;;;;;8.20;3.03;;;;;;;27.63;30.94;94156.53;5020757;28;20236;-78
2022/05/23 13:04:25;;;;;;;27.95;4.95;;;;;;;27.62;30.02;94147.00;5063127;28;20201;-78
2022/05/23 13:07:02;;;;;;;24.35;6.07;;;;;;;27.60;30.08;94156.09;5067837;28;20667;-82